Terminal Aerodrome Forecast
Issued by NWS

Home | Current Version | Previous Version | Text Only | Print | Product List | Glossary On
Versions: 1 2 3 4 5 6 7 8 9 10 11 12 13 14 15 16 17 18
000
FTUS43 KDTX 050902 AAA
TAFDET
TAF AMD
KDET 050902Z 0509/0606 06008KT P6SM OVC120
     FM051200 08006KT 6SM -SHRA OVC060
     FM051600 09010KT 5SM SHRA OVC045
     FM052200 10007KT 5SM SHRA BR OVC025
     FM060300 11006KT 4SM BR OVC015=

USA.gov is the U.S. government's official web portal to all federal, state and local government web resources and services.